createdAt,value
2017-12-28T00:02:08.627Z,2.28
2017-12-28T00:04:37.511Z,2.74
2017-12-28T00:07:06.163Z,2.29
2017-12-28T00:09:34.883Z,2.49
2017-12-28T00:12:03.767Z,2.30
2017-12-28T00:14:32.463Z,2.32
2017-12-28T00:17:01.084Z,2.52
2017-12-28T00:19:30.827Z,2.54
2017-12-28T00:21:59.363Z,2.56
2017-12-28T00:24:28.128Z,2.52
2017-12-28T00:26:56.880Z,2.37
2017-12-28T00:29:25.598Z,2.23
2017-12-28T00:31:55.008Z,2.26
2017-12-28T00:34:24.060Z,2.11
2017-12-28T00:36:52.776Z,2.45
2017-12-28T00:39:21.471Z,2.44
2017-12-28T00:41:50.511Z,2.40
2017-12-28T00:44:19.972Z,2.13
2017-12-28T00:46:48.618Z,2.34
2017-12-28T00:49:17.203Z,2.10
2017-12-28T00:51:45.882Z,2.15
2017-12-28T00:54:14.606Z,2.15
2017-12-28T00:56:43.402Z,2.48
2017-12-28T00:59:11.978Z,2.66
2017-12-28T01:01:40.664Z,2.49
2017-12-28T01:04:09.595Z,2.41
2017-12-28T01:06:39.010Z,2.20
2017-12-28T01:09:08.348Z,2.28
2017-12-28T01:11:37.296Z,2.53
2017-12-28T01:14:06.760Z,2.46
2017-12-28T01:16:35.307Z,2.11
2017-12-28T01:19:04.175Z,2.17
2017-12-28T01:21:33.645Z,2.35
2017-12-28T01:24:02.284Z,2.47
2017-12-28T01:26:31.209Z,2.68
2017-12-28T01:28:59.848Z,2.50
2017-12-28T01:31:29.184Z,2.29
2017-12-28T01:33:57.980Z,2.36
2017-12-28T01:36:26.679Z,2.20
2017-12-28T01:38:55.314Z,2.48
2017-12-28T01:41:25.034Z,2.73
2017-12-28T01:43:53.572Z,2.69
2017-12-28T01:46:22.132Z,2.28
2017-12-28T01:48:50.917Z,2.24
2017-12-28T01:51:19.604Z,2.43
2017-12-28T01:53:48.249Z,2.28
2017-12-28T01:56:16.976Z,2.04
2017-12-28T01:58:45.661Z,2.26
2017-12-28T02:01:14.326Z,2.18
2017-12-28T02:03:43.320Z,2.34
2017-12-28T02:06:12.026Z,2.29
2017-12-28T02:08:40.654Z,2.30
2017-12-28T02:11:10.173Z,2.48
2017-12-28T02:13:39.619Z,2.46
2017-12-28T02:16:08.257Z,2.80
2017-12-28T02:18:38.200Z,2.92
2017-12-28T02:21:06.906Z,2.61
2017-12-28T02:23:35.535Z,2.31
2017-12-28T02:26:05.101Z,2.59
2017-12-28T02:28:33.787Z,2.69
2017-12-28T02:31:02.472Z,2.73
2017-12-28T02:33:31.152Z,3.07
2017-12-28T02:36:01.342Z,3.06
2017-12-28T02:38:29.928Z,2.88
2017-12-28T02:40:58.713Z,2.88
2017-12-28T02:43:27.498Z,2.97
2017-12-28T02:45:56.184Z,2.97
2017-12-28T02:48:25.177Z,2.92
2017-12-28T02:50:53.806Z,2.80
2017-12-28T02:53:23.273Z,2.94
2017-12-28T02:55:52.019Z,3.21
2017-12-28T02:58:20.744Z,3.03
2017-12-28T03:00:49.527Z,2.89
2017-12-28T03:03:18.369Z,2.67
2017-12-28T03:05:47.679Z,2.65
2017-12-28T03:08:16.409Z,2.48
2017-12-28T03:10:45.401Z,2.87
2017-12-28T03:13:14.040Z,2.44
2017-12-28T03:15:43.486Z,2.27
2017-12-28T03:18:12.172Z,2.38
2017-12-28T03:20:40.858Z,2.41
2017-12-28T03:23:09.511Z,2.30
2017-12-28T03:25:38.275Z,2.30
2017-12-28T03:28:07.946Z,2.52
2017-12-28T03:30:36.732Z,2.57
2017-12-28T03:33:05.331Z,2.35
2017-12-28T03:35:34.004Z,2.19
2017-12-28T03:38:02.789Z,2.32
2017-12-28T03:40:31.679Z,2.49
2017-12-28T03:43:00.325Z,2.56
2017-12-28T03:45:29.054Z,2.48
2017-12-28T03:47:57.838Z,2.02
2017-12-28T03:50:26.525Z,2.20
2017-12-28T03:52:55.173Z,1.91
2017-12-28T03:55:23.897Z,1.95
2017-12-28T03:57:52.537Z,2.18
2017-12-28T04:00:21.981Z,2.18
2017-12-28T04:02:51.588Z,2.34
2017-12-28T04:05:20.275Z,2.30
2017-12-28T04:07:48.904Z,2.30
2017-12-28T04:10:18.568Z,2.39
2017-12-28T04:12:47.464Z,2.50
2017-12-28T04:15:16.149Z,2.49
2017-12-28T04:17:45.141Z,2.77
2017-12-28T04:20:14.589Z,2.68
2017-12-28T04:22:43.928Z,2.79
2017-12-28T04:25:12.635Z,2.53
2017-12-28T04:27:41.175Z,2.58
2017-12-28T04:30:09.863Z,2.68
2017-12-28T04:32:38.856Z,2.49
2017-12-28T04:35:07.577Z,2.45
2017-12-28T04:37:36.162Z,2.70
2017-12-28T04:40:04.860Z,2.48
2017-12-28T04:42:33.420Z,2.54
2017-12-28T04:45:02.123Z,2.62
2017-12-28T04:47:30.962Z,2.38
2017-12-28T04:49:59.691Z,2.51
2017-12-28T04:52:28.266Z,2.24
2017-12-28T04:54:57.065Z,2.56
2017-12-28T04:57:25.650Z,2.65
2017-12-28T04:59:54.192Z,2.72
2017-12-28T05:02:23.893Z,2.73
2017-12-28T05:04:53.343Z,3.08
2017-12-28T05:07:21.985Z,2.91
2017-12-28T05:09:50.714Z,2.84
2017-12-28T05:12:19.364Z,2.81
2017-12-28T05:14:48.086Z,2.82
2017-12-28T05:17:16.771Z,2.72
2017-12-28T05:19:45.458Z,2.79
2017-12-28T05:22:14.110Z,2.84
2017-12-28T05:24:42.874Z,3.06
2017-12-28T05:27:11.479Z,2.74
2017-12-28T05:29:40.201Z,2.85
2017-12-28T05:32:08.927Z,2.25
2017-12-28T05:34:37.682Z,2.63
2017-12-28T05:37:06.369Z,2.71
2017-12-28T05:39:35.152Z,2.75
2017-12-28T05:42:03.840Z,2.55
2017-12-28T05:44:32.623Z,2.65
2017-12-28T05:47:01.762Z,2.86
2017-12-28T05:49:31.224Z,3.10
2017-12-28T05:52:00.020Z,3.12
2017-12-28T05:54:28.705Z,2.70
2017-12-28T05:56:57.248Z,2.38
2017-12-28T05:59:25.967Z,2.58
2017-12-28T06:01:55.168Z,2.73
2017-12-28T06:04:23.835Z,2.96
2017-12-28T06:06:52.540Z,3.15
2017-12-28T06:09:21.325Z,3.22
2017-12-28T06:11:50.011Z,3.11
2017-12-28T06:14:18.656Z,3.14
2017-12-28T06:16:47.549Z,3.15
2017-12-28T06:19:16.277Z,3.01
2017-12-28T06:21:44.853Z,3.09
2017-12-28T06:24:13.549Z,2.96
2017-12-28T06:26:42.235Z,3.09
2017-12-28T06:29:10.921Z,3.09
2017-12-28T06:31:39.602Z,3.16
2017-12-28T06:34:08.294Z,3.23
2017-12-28T06:36:36.912Z,3.24
2017-12-28T06:39:06.635Z,3.48
2017-12-28T06:41:36.084Z,3.04
2017-12-28T06:44:04.719Z,3.23
2017-12-28T06:46:34.279Z,2.79
2017-12-28T06:49:02.904Z,3.38
2017-12-28T06:51:32.211Z,4.00
2017-12-28T06:54:01.915Z,3.64
2017-12-28T06:56:31.380Z,4.00
2017-12-28T06:58:59.997Z,4.01
2017-12-28T07:01:28.918Z,3.76
2017-12-28T07:03:57.635Z,3.99
2017-12-28T07:06:26.278Z,4.00
2017-12-28T07:08:55.691Z,4.02
2017-12-28T07:11:24.417Z,3.75
2017-12-28T07:13:53.053Z,3.86
2017-12-28T07:16:22.699Z,4.45
2017-12-28T07:18:51.287Z,4.23
2017-12-28T07:21:19.934Z,4.26
2017-12-28T07:23:48.967Z,4.64
2017-12-28T07:26:17.595Z,4.32
2017-12-28T07:28:47.061Z,4.26
2017-12-28T07:31:15.781Z,4.26
2017-12-28T07:33:45.245Z,3.91
2017-12-28T07:36:13.891Z,4.29
2017-12-28T07:38:42.617Z,3.98
2017-12-28T07:41:11.302Z,3.82
2017-12-28T07:43:39.944Z,4.05
2017-12-28T07:46:08.531Z,3.71
2017-12-28T07:48:37.262Z,3.92
2017-12-28T07:51:05.897Z,4.29
2017-12-28T07:53:35.614Z,4.14
2017-12-28T07:56:04.342Z,3.90
2017-12-28T07:58:33.025Z,3.81
2017-12-28T08:01:01.716Z,4.15
2017-12-28T08:03:30.397Z,4.32
2017-12-28T08:05:59.029Z,4.25
2017-12-28T08:08:28.592Z,4.09
2017-12-28T08:10:57.214Z,4.12
2017-12-28T08:13:26.527Z,4.34
2017-12-28T08:15:56.021Z,4.06
2017-12-28T08:18:25.486Z,4.13
2017-12-28T08:20:54.110Z,4.63
2017-12-28T08:23:23.675Z,4.33
2017-12-28T08:25:52.365Z,3.98
2017-12-28T08:28:22.013Z,4.15
2017-12-28T08:30:51.756Z,4.13
2017-12-28T08:33:20.464Z,3.80
2017-12-28T08:35:49.116Z,3.97
2017-12-28T08:38:18.045Z,4.20
2017-12-28T08:40:46.729Z,4.16
2017-12-28T08:43:15.514Z,4.33
2017-12-28T08:45:44.656Z,4.16
2017-12-28T08:48:14.115Z,4.42
2017-12-28T08:50:42.910Z,4.73
2017-12-28T08:53:11.695Z,4.88
2017-12-28T08:55:41.130Z,5.29
2017-12-28T08:58:09.890Z,5.15
2017-12-28T09:00:38.674Z,4.95
2017-12-28T09:03:07.411Z,5.18
2017-12-28T09:05:36.747Z,5.23
2017-12-28T09:08:05.696Z,5.26
2017-12-28T09:10:35.161Z,4.97
2017-12-28T09:13:03.818Z,4.90
2017-12-28T09:15:32.623Z,4.94
2017-12-28T09:18:02.244Z,4.87
2017-12-28T09:20:31.005Z,4.97
2017-12-28T09:22:59.777Z,5.17
2017-12-28T09:25:28.479Z,4.92
2017-12-28T09:27:57.113Z,5.06
2017-12-28T09:30:26.731Z,5.26
2017-12-28T09:32:55.460Z,5.31
2017-12-28T09:35:24.240Z,5.46
2017-12-28T09:37:53.342Z,5.56
2017-12-28T09:40:21.919Z,5.66
2017-12-28T09:42:50.569Z,5.52
2017-12-28T09:45:19.290Z,5.70
2017-12-28T09:47:47.956Z,5.89
2017-12-28T09:50:16.662Z,6.31
2017-12-28T09:52:45.387Z,6.56
2017-12-28T09:55:14.857Z,6.46
2017-12-28T09:57:43.432Z,6.13
2017-12-28T10:00:12.129Z,6.14
2017-12-28T10:02:40.759Z,5.88
2017-12-28T10:05:10.098Z,5.78
2017-12-28T10:07:38.998Z,5.87
2017-12-28T10:10:07.665Z,6.05
2017-12-28T10:12:36.371Z,6.01
2017-12-28T10:15:05.097Z,6.18
2017-12-28T10:17:33.852Z,5.72
2017-12-28T10:20:02.538Z,6.01
2017-12-28T10:22:31.380Z,5.96
2017-12-28T10:25:00.106Z,6.22
2017-12-28T10:27:28.696Z,6.33
2017-12-28T10:29:57.687Z,5.96
2017-12-28T10:32:26.324Z,5.90
2017-12-28T10:34:55.026Z,5.32
2017-12-28T10:37:24.086Z,5.65
2017-12-28T10:39:52.804Z,5.65
2017-12-28T10:42:21.473Z,5.80
2017-12-28T10:44:50.385Z,5.96
2017-12-28T10:47:19.030Z,6.65
2017-12-28T10:49:47.756Z,7.02
2017-12-28T10:52:17.616Z,7.67
2017-12-28T10:54:47.069Z,8.04
2017-12-28T10:57:15.702Z,8.00
2017-12-28T10:59:45.264Z,8.24
2017-12-28T11:02:13.950Z,8.10
2017-12-28T11:04:42.636Z,7.98
2017-12-28T11:07:11.572Z,7.06
2017-12-28T11:09:41.027Z,7.62
2017-12-28T11:12:09.616Z,7.65
2017-12-28T11:14:38.400Z,8.27
2017-12-28T11:17:07.085Z,8.34
2017-12-28T11:19:35.737Z,8.19
2017-12-28T11:22:04.463Z,8.62
2017-12-28T11:24:33.351Z,8.33
2017-12-28T11:27:02.037Z,8.91
2017-12-28T11:29:30.879Z,8.78
2017-12-28T11:32:00.330Z,8.86
2017-12-28T11:34:29.016Z,9.01
2017-12-28T11:36:57.705Z,9.06
2017-12-28T11:39:26.388Z,9.07
2017-12-28T11:41:55.177Z,9.34
2017-12-28T11:44:23.967Z,8.73
2017-12-28T11:46:52.652Z,8.97
2017-12-28T11:49:22.197Z,8.49
2017-12-28T11:51:51.758Z,8.06
2017-12-28T11:57:30.826Z,8.67
2017-12-28T12:00:04.927Z,8.99
2017-12-28T12:02:39.241Z,9.32
2017-12-28T12:05:07.927Z,9.19
2017-12-28T12:07:46.850Z,9.04
2017-12-28T12:10:15.645Z,8.79
2017-12-28T12:12:44.280Z,8.59
2017-12-28T12:15:14.136Z,8.63
2017-12-28T12:17:42.793Z,8.85
2017-12-28T12:20:11.434Z,8.74
2017-12-28T12:22:40.193Z,8.80
2017-12-28T12:25:08.879Z,8.62
2017-12-28T12:27:37.539Z,8.94
2017-12-28T12:30:06.604Z,9.28
2017-12-28T12:32:35.944Z,9.03
2017-12-28T12:35:04.590Z,8.88
2017-12-28T12:37:34.411Z,9.45
2017-12-28T12:40:03.870Z,9.08
2017-12-28T12:42:32.554Z,8.78
2017-12-28T12:45:01.306Z,9.09
2017-12-28T12:47:29.883Z,9.35
2017-12-28T12:49:58.568Z,9.37
2017-12-28T12:52:27.773Z,9.69
2017-12-28T12:54:56.435Z,9.84
2017-12-28T12:57:25.142Z,9.71
2017-12-28T12:59:54.996Z,9.85
2017-12-28T13:02:24.858Z,10.05
2017-12-28T13:04:53.597Z,10.65
2017-12-28T13:07:23.570Z,11.12
2017-12-28T13:09:52.192Z,10.73
2017-12-28T13:12:21.616Z,11.23
2017-12-28T13:14:50.649Z,11.21
2017-12-28T13:17:19.296Z,11.16
2017-12-28T13:19:48.020Z,11.29
2017-12-28T13:22:16.814Z,11.33
2017-12-28T13:24:45.500Z,11.42
2017-12-28T13:27:14.139Z,11.47
2017-12-28T13:29:43.836Z,11.58
2017-12-28T13:32:13.290Z,11.80
2017-12-28T13:34:41.977Z,12.66
2017-12-28T13:37:10.666Z,13.54
2017-12-28T13:39:39.248Z,13.58
2017-12-28T13:42:07.824Z,13.56
2017-12-28T13:44:36.766Z,13.57
2017-12-28T13:47:06.084Z,13.37
2017-12-28T13:49:34.776Z,13.50
2017-12-28T13:52:03.443Z,13.76
2017-12-28T13:54:32.899Z,13.68
2017-12-28T13:57:01.585Z,13.72
2017-12-28T13:59:30.576Z,13.89
2017-12-28T14:01:59.151Z,14.24
2017-12-28T14:04:27.937Z,14.28
2017-12-28T14:06:56.896Z,14.40
2017-12-28T14:09:25.626Z,14.30
2017-12-28T14:11:54.264Z,14.31
2017-12-28T14:14:23.754Z,14.24
2017-12-28T14:16:53.150Z,14.18
2017-12-28T14:19:22.617Z,14.01
2017-12-28T14:21:51.786Z,14.05
2017-12-28T14:24:20.502Z,13.96
2017-12-28T14:26:49.122Z,13.78
2017-12-28T14:29:18.793Z,13.66
2017-12-28T14:31:47.336Z,13.61
2017-12-28T14:34:16.724Z,13.61
2017-12-28T14:36:46.694Z,13.73
2017-12-28T14:39:15.336Z,13.51
2017-12-28T14:41:43.969Z,13.39
2017-12-28T14:44:12.751Z,13.26
2017-12-28T14:46:42.258Z,12.97
2017-12-28T14:49:10.832Z,12.77
2017-12-28T14:51:39.826Z,12.57
2017-12-28T14:54:08.511Z,12.59
2017-12-28T14:56:37.282Z,12.67
2017-12-28T14:59:06.099Z,12.63
2017-12-28T15:01:34.775Z,12.79
2017-12-28T15:04:03.442Z,12.92
2017-12-28T15:06:32.381Z,12.96
2017-12-28T15:09:01.800Z,13.05
2017-12-28T15:11:30.420Z,12.90
2017-12-28T15:13:59.205Z,12.82
2017-12-28T15:16:28.307Z,12.88
2017-12-28T15:18:56.887Z,12.72
2017-12-28T15:21:25.880Z,12.71
2017-12-28T15:23:54.669Z,13.00
2017-12-28T15:26:23.212Z,13.21
2017-12-28T15:28:53.129Z,13.18
2017-12-28T15:31:21.858Z,13.25
2017-12-28T15:33:50.580Z,13.25
2017-12-28T15:36:22.179Z,13.30
2017-12-28T15:38:51.279Z,13.51
2017-12-28T15:41:19.867Z,13.43
2017-12-28T15:43:49.690Z,13.25
2017-12-28T15:46:18.370Z,13.13
2017-12-28T15:48:46.941Z,13.08
2017-12-28T15:51:16.044Z,12.78
2017-12-28T15:53:44.667Z,12.69
2017-12-28T15:56:14.130Z,12.55
2017-12-28T15:58:42.836Z,12.37
2017-12-28T16:01:11.849Z,12.41
2017-12-28T16:03:41.315Z,12.30
2017-12-28T16:06:10.100Z,12.26
2017-12-28T16:08:38.785Z,12.25
2017-12-28T16:11:07.470Z,12.30
2017-12-28T16:13:36.313Z,12.21
2017-12-28T16:16:05.624Z,12.15
2017-12-28T16:18:34.349Z,11.96
2017-12-28T16:21:03.341Z,11.96
2017-12-28T16:23:31.955Z,11.71
2017-12-28T16:26:00.649Z,11.71
2017-12-28T16:28:30.308Z,11.71
2017-12-28T16:30:59.006Z,11.72
2017-12-28T16:33:27.780Z,11.65
2017-12-28T16:35:56.475Z,11.62
2017-12-28T16:38:25.162Z,11.79
2017-12-28T16:40:53.833Z,11.80
2017-12-28T16:43:22.531Z,11.75
2017-12-28T16:45:51.218Z,11.75
2017-12-28T16:48:20.824Z,11.78
2017-12-28T16:50:49.509Z,11.82
2017-12-28T16:53:18.097Z,11.69
2017-12-28T16:55:46.782Z,11.73
2017-12-28T16:58:15.508Z,11.70
2017-12-28T17:00:44.925Z,11.56
2017-12-28T17:03:13.594Z,11.77
2017-12-28T17:05:43.160Z,11.98
2017-12-28T17:08:14.332Z,12.00
2017-12-28T17:10:43.893Z,12.03
2017-12-28T17:13:12.515Z,12.13
2017-12-28T17:15:41.978Z,12.19
2017-12-28T17:18:10.873Z,12.15
2017-12-28T17:20:39.517Z,12.23
2017-12-28T17:23:08.243Z,12.30
2017-12-28T17:25:37.303Z,12.30
2017-12-28T17:28:05.976Z,12.32
2017-12-28T17:30:34.704Z,12.43
2017-12-28T17:33:03.681Z,12.43
2017-12-28T17:35:32.219Z,12.33
2017-12-28T17:38:01.585Z,12.40
2017-12-28T17:40:30.583Z,12.50
2017-12-28T17:42:59.361Z,12.48
2017-12-28T17:45:27.994Z,12.45
2017-12-28T17:47:57.464Z,12.55
2017-12-28T17:50:26.027Z,12.62
2017-12-28T17:52:54.674Z,12.77
2017-12-28T17:55:23.710Z,12.84
2017-12-28T17:57:52.358Z,12.95
2017-12-28T18:00:21.026Z,13.08
2017-12-28T18:02:50.528Z,12.90
2017-12-28T18:05:19.936Z,12.96
2017-12-28T18:07:49.399Z,12.82
2017-12-28T18:10:18.282Z,12.77
2017-12-28T18:12:46.916Z,12.65
2017-12-28T18:15:16.377Z,12.47
2017-12-28T18:17:45.226Z,12.45
2017-12-28T18:20:13.946Z,12.35
2017-12-28T18:22:42.586Z,12.49
2017-12-28T18:25:11.317Z,12.32
2017-12-28T18:27:39.971Z,12.35
2017-12-28T18:30:08.590Z,12.25
2017-12-28T18:32:37.374Z,12.17
2017-12-28T18:35:06.060Z,12.18
2017-12-28T18:37:34.891Z,12.16
2017-12-28T18:40:04.761Z,11.99
2017-12-28T18:42:33.449Z,11.93
2017-12-28T18:45:02.091Z,11.84
2017-12-28T18:47:31.587Z,11.75
2017-12-28T18:50:01.047Z,11.82
2017-12-28T18:52:29.719Z,11.89
2017-12-28T18:54:58.414Z,12.06
2017-12-28T18:57:26.995Z,12.15
2017-12-28T18:59:55.626Z,12.29
2017-12-28T19:02:25.444Z,12.33
2017-12-28T19:04:54.896Z,12.24
2017-12-28T19:07:23.584Z,12.43
2017-12-28T19:09:52.577Z,12.41
2017-12-28T19:12:21.240Z,12.49
2017-12-28T19:14:49.909Z,12.66
2017-12-28T19:17:18.631Z,12.59
2017-12-28T19:19:47.317Z,12.63
2017-12-28T19:22:16.003Z,12.66
2017-12-28T19:24:44.800Z,12.81
2017-12-28T19:27:13.418Z,12.98
2017-12-28T19:29:42.883Z,12.96
2017-12-28T19:32:11.632Z,13.09
2017-12-28T19:34:40.352Z,13.10
2017-12-28T19:37:08.970Z,13.19
2017-12-28T19:39:39.469Z,13.22
2017-12-28T19:42:08.155Z,13.29
2017-12-28T19:44:36.796Z,13.29
2017-12-28T19:47:05.589Z,13.31
2017-12-28T19:49:34.310Z,13.40
2017-12-28T19:52:09.888Z,13.34
2017-12-28T19:54:38.592Z,13.47
2017-12-28T19:57:07.311Z,13.41
2017-12-28T19:59:36.053Z,13.57
2017-12-28T20:02:04.697Z,13.40
2017-12-28T20:04:33.461Z,13.45
2017-12-28T20:07:02.307Z,13.39
2017-12-28T20:09:31.655Z,13.36
2017-12-28T20:12:00.243Z,13.26
2017-12-28T20:14:29.027Z,13.26
2017-12-28T20:16:57.703Z,13.19
2017-12-28T20:19:26.345Z,13.19
2017-12-28T20:21:55.810Z,13.05
2017-12-28T20:24:24.481Z,13.10
2017-12-28T20:26:53.168Z,13.16
2017-12-28T20:29:21.863Z,13.17
2017-12-28T20:31:50.539Z,13.05
2017-12-28T20:34:19.179Z,13.02
2017-12-28T20:36:48.119Z,12.95
2017-12-28T20:39:16.706Z,12.88
2017-12-28T20:41:45.282Z,13.04
2017-12-28T20:44:15.406Z,12.78
2017-12-28T20:46:44.041Z,12.74
2017-12-28T20:49:13.490Z,12.98
2017-12-28T20:51:42.692Z,12.94
2017-12-28T20:54:11.370Z,12.92
2017-12-28T20:56:40.063Z,13.12
2017-12-28T20:59:09.004Z,12.97
2017-12-28T21:01:38.454Z,12.94
2017-12-28T21:04:07.090Z,12.90
2017-12-28T21:06:36.648Z,13.22
2017-12-28T21:09:05.433Z,13.26
2017-12-28T21:11:34.069Z,13.53
2017-12-28T21:14:02.804Z,13.37
2017-12-28T21:16:31.599Z,12.97
2017-12-28T21:19:00.219Z,12.58
2017-12-28T21:21:29.991Z,12.62
2017-12-28T21:23:58.633Z,13.04
2017-12-28T21:26:27.364Z,13.24
2017-12-28T21:28:56.094Z,12.90
2017-12-28T21:31:25.447Z,13.54
2017-12-28T21:33:54.080Z,13.65
2017-12-28T21:36:23.548Z,13.69
2017-12-28T21:38:52.214Z,13.30
2017-12-28T21:41:20.905Z,12.96
2017-12-28T21:43:49.700Z,12.66
2017-12-28T21:46:18.388Z,12.59
2017-12-28T21:48:46.960Z,12.54
2017-12-28T21:51:15.705Z,12.36
2017-12-28T21:53:45.154Z,12.71
2017-12-28T21:56:14.716Z,12.54
2017-12-28T21:58:43.662Z,12.29
2017-12-28T22:01:12.243Z,12.62
2017-12-28T22:03:40.929Z,12.52
2017-12-28T22:06:09.665Z,12.41
2017-12-28T22:08:39.113Z,12.32
2017-12-28T22:11:07.750Z,12.52
2017-12-28T22:13:37.463Z,12.18
2017-12-28T22:16:06.914Z,11.75
2017-12-28T22:18:36.422Z,11.89
2017-12-28T22:21:05.920Z,12.15
2017-12-28T22:23:34.564Z,11.93
2017-12-28T22:26:03.157Z,11.92
2017-12-28T22:28:32.249Z,11.85
2017-12-28T22:31:00.970Z,11.78
2017-12-28T22:33:29.635Z,11.35
2017-12-28T22:35:58.503Z,11.15
2017-12-28T22:38:27.979Z,11.15
2017-12-28T22:40:56.738Z,11.43
2017-12-28T22:43:25.627Z,11.40
2017-12-28T22:45:54.313Z,11.68
2017-12-28T22:48:22.998Z,11.45
2017-12-28T22:50:51.683Z,11.44
2017-12-28T22:53:20.227Z,11.81
2017-12-28T22:55:49.622Z,11.75
2017-12-28T22:58:19.114Z,11.78
2017-12-28T23:00:48.578Z,11.72
2017-12-28T23:03:17.264Z,11.63
2017-12-28T23:05:46.059Z,11.93
2017-12-28T23:08:14.755Z,11.94
2017-12-28T23:10:44.966Z,12.10
2017-12-28T23:13:14.469Z,12.06
2017-12-28T23:15:43.150Z,12.11
2017-12-28T23:18:11.738Z,11.99
2017-12-28T23:20:40.522Z,11.80
2017-12-28T23:23:09.207Z,11.56
2017-12-28T23:25:37.893Z,11.47
2017-12-28T23:28:06.676Z,11.54
2017-12-28T23:30:35.373Z,11.85
2017-12-28T23:33:04.058Z,11.59
2017-12-28T23:35:32.783Z,11.48
2017-12-28T23:38:02.246Z,11.02
2017-12-28T23:40:30.929Z,10.62
2017-12-28T23:42:59.708Z,10.71
2017-12-28T23:45:28.299Z,10.63
2017-12-28T23:47:56.889Z,10.74
2017-12-28T23:50:25.671Z,10.18
2017-12-28T23:52:55.258Z,10.05
2017-12-28T23:55:23.926Z,10.12
2017-12-28T23:57:52.593Z,10.18
